createdAt,value
2017-11-11T00:00:18.094Z,1005.52
2017-11-11T00:00:58.647Z,1005.49
2017-11-11T00:01:39.166Z,1005.55
2017-11-11T00:02:19.734Z,1005.52
2017-11-11T00:03:00.278Z,1005.53
2017-11-11T00:03:40.864Z,1005.55
2017-11-11T00:04:21.405Z,1005.51
2017-11-11T00:05:02.007Z,1005.53
2017-11-11T00:05:42.597Z,1005.56
2017-11-11T00:06:23.114Z,1005.54
2017-11-11T00:07:03.693Z,1005.6
2017-11-11T00:07:44.211Z,1005.57
2017-11-11T00:08:24.752Z,1005.58
2017-11-11T00:09:05.332Z,1005.61
2017-11-11T00:09:45.902Z,1005.54
2017-11-11T00:10:26.454Z,1005.56
2017-11-11T00:11:07.033Z,1005.56
2017-11-11T00:11:47.601Z,1005.52
2017-11-11T00:12:28.122Z,1005.52
2017-11-11T00:13:08.678Z,1005.54
2017-11-11T00:13:49.224Z,1005.54
2017-11-11T00:14:29.794Z,1005.54
2017-11-11T00:15:10.327Z,1005.56
2017-11-11T00:15:50.878Z,1005.54
2017-11-11T00:16:31.398Z,1005.55
2017-11-11T00:17:11.956Z,1005.59
2017-11-11T00:17:52.468Z,1005.6
2017-11-11T00:18:32.990Z,1005.54
2017-11-11T00:19:13.565Z,1005.59
2017-11-11T00:19:54.129Z,1005.59
2017-11-11T00:20:34.710Z,1005.67
2017-11-11T00:21:15.222Z,1005.66
2017-11-11T00:21:55.782Z,1005.64
2017-11-11T00:22:36.299Z,1005.65
2017-11-11T00:23:16.831Z,1005.65
2017-11-11T00:23:57.374Z,1005.63
2017-11-11T00:24:37.968Z,1005.61
2017-11-11T00:25:18.518Z,1005.67
2017-11-11T00:25:59.074Z,1005.66
2017-11-11T00:26:39.616Z,1005.63
2017-11-11T00:27:20.135Z,1005.64
2017-11-11T00:28:00.948Z,1005.67
2017-11-11T00:28:41.461Z,1005.65
2017-11-11T00:29:22.005Z,1005.62
2017-11-11T00:30:02.558Z,1005.63
2017-11-11T00:30:43.138Z,1005.66
2017-11-11T00:31:23.666Z,1005.61
2017-11-11T00:32:04.211Z,1005.62
2017-11-11T00:32:44.764Z,1005.61
2017-11-11T00:33:25.310Z,1005.6
2017-11-11T00:34:05.886Z,1005.6
2017-11-11T00:34:46.412Z,1005.6
2017-11-11T00:35:27.473Z,1005.63
2017-11-11T00:36:08.150Z,1005.58
2017-11-11T00:36:48.977Z,1005.59
2017-11-11T00:37:29.520Z,1005.6
2017-11-11T00:38:10.078Z,1005.65
2017-11-11T00:38:50.559Z,1005.6
2017-11-11T00:39:31.109Z,1005.64
2017-11-11T00:40:11.666Z,1005.66
2017-11-11T00:40:52.223Z,1005.66
2017-11-11T00:41:32.750Z,1005.6
2017-11-11T00:42:13.282Z,1005.62
2017-11-11T00:42:53.870Z,1005.66
2017-11-11T00:43:34.401Z,1005.66
2017-11-11T00:44:14.941Z,1005.64
2017-11-11T00:44:55.468Z,1005.67
2017-11-11T00:45:36.027Z,1005.66
2017-11-11T00:46:16.572Z,1005.66
2017-11-11T00:46:57.111Z,1005.65
2017-11-11T00:47:37.655Z,1005.6
2017-11-11T00:48:18.224Z,1005.63
2017-11-11T00:48:58.781Z,1005.63
2017-11-11T00:49:39.355Z,1005.58
2017-11-11T00:50:19.929Z,1005.56
2017-11-11T00:51:00.444Z,1005.57
2017-11-11T00:51:40.952Z,1005.58
2017-11-11T00:52:21.514Z,1005.55
2017-11-11T00:53:02.046Z,1005.59
2017-11-11T00:53:42.600Z,1005.53
2017-11-11T00:54:23.121Z,1005.57
2017-11-11T00:55:03.647Z,1005.52
2017-11-11T00:55:44.166Z,1005.58
2017-11-11T00:56:24.722Z,1005.58
2017-11-11T00:57:05.245Z,1005.56
2017-11-11T00:57:45.777Z,1005.58
2017-11-11T00:58:26.333Z,1005.52
2017-11-11T00:59:06.931Z,1005.53
2017-11-11T00:59:47.458Z,1005.54
2017-11-11T01:00:27.998Z,1005.57
2017-11-11T01:01:08.563Z,1005.59
2017-11-11T01:01:49.061Z,1005.6
2017-11-11T01:02:29.575Z,1005.6
2017-11-11T01:03:10.101Z,1005.66
2017-11-11T01:03:50.631Z,1005.61
2017-11-11T01:04:31.161Z,1005.6
2017-11-11T01:05:11.716Z,1005.59
2017-11-11T01:05:52.248Z,1005.6
2017-11-11T01:06:32.776Z,1005.6
2017-11-11T01:07:13.301Z,1005.53
2017-11-11T01:07:53.891Z,1005.53
2017-11-11T01:08:34.436Z,1005.57
2017-11-11T01:09:15.002Z,1005.56
2017-11-11T01:09:55.544Z,1005.51
2017-11-11T01:10:36.112Z,1005.52
2017-11-11T01:11:16.646Z,1005.53
2017-11-11T01:11:57.188Z,1005.6
2017-11-11T01:12:37.760Z,1005.58
2017-11-11T01:13:18.289Z,1005.61
2017-11-11T01:13:58.814Z,1005.65
2017-11-11T01:14:39.402Z,1005.66
2017-11-11T01:15:19.941Z,1005.63
2017-11-11T01:16:00.500Z,1005.68
2017-11-11T01:16:41.052Z,1005.67
2017-11-11T01:17:21.591Z,1005.66
2017-11-11T01:18:02.156Z,1005.68
2017-11-11T01:18:42.715Z,1005.66
2017-11-11T01:19:23.258Z,1005.65
2017-11-11T01:20:03.779Z,1005.62
2017-11-11T01:20:44.356Z,1005.64
2017-11-11T01:21:24.915Z,1005.6
2017-11-11T01:22:05.492Z,1005.58
2017-11-11T01:22:46.046Z,1005.59
2017-11-11T01:23:26.631Z,1005.64
2017-11-11T01:24:07.183Z,1005.67
2017-11-11T01:24:47.747Z,1005.67
2017-11-11T01:25:28.295Z,1005.65
2017-11-11T01:26:08.859Z,1005.68
2017-11-11T01:26:49.413Z,1005.71
2017-11-11T01:27:29.939Z,1005.68
2017-11-11T01:28:10.491Z,1005.71
2017-11-11T01:28:51.056Z,1005.66
2017-11-11T01:29:31.621Z,1005.66
2017-11-11T01:30:12.161Z,1005.67
2017-11-11T01:30:52.713Z,1005.61
2017-11-11T01:31:33.312Z,1005.64
2017-11-11T01:32:16.526Z,1005.64
2017-11-11T01:32:56.657Z,1005.67
2017-11-11T01:33:37.193Z,1005.68
2017-11-11T01:34:17.746Z,1005.64
2017-11-11T01:34:58.273Z,1005.64
2017-11-11T01:35:38.986Z,1005.65
2017-11-11T01:36:19.569Z,1005.6
2017-11-11T01:37:00.134Z,1005.63
2017-11-11T01:37:40.694Z,1005.6
2017-11-11T01:38:21.224Z,1005.58
2017-11-11T01:39:01.758Z,1005.59
2017-11-11T01:39:42.279Z,1005.59
2017-11-11T01:40:22.885Z,1005.61
2017-11-11T01:41:03.405Z,1005.64
2017-11-11T01:41:43.970Z,1005.64
2017-11-11T01:42:24.523Z,1005.57
2017-11-11T01:43:05.087Z,1005.61
2017-11-11T01:43:45.664Z,1005.55
2017-11-11T01:44:26.188Z,1005.59
2017-11-11T01:45:06.755Z,1005.56
2017-11-11T01:45:47.277Z,1005.6
2017-11-11T01:46:27.858Z,1005.54
2017-11-11T01:47:08.387Z,1005.56
2017-11-11T01:47:48.957Z,1005.56
2017-11-11T01:48:29.502Z,1005.54
2017-11-11T01:49:10.036Z,1005.58
2017-11-11T01:49:50.622Z,1005.59
2017-11-11T01:50:31.212Z,1005.6
2017-11-11T01:51:11.781Z,1005.56
2017-11-11T01:51:52.335Z,1005.57
2017-11-11T01:52:32.863Z,1005.55
2017-11-11T01:53:13.425Z,1005.53
2017-11-11T01:53:53.978Z,1005.55
2017-11-11T01:54:34.546Z,1005.58
2017-11-11T01:55:15.050Z,1005.52
2017-11-11T01:55:55.590Z,1005.5
2017-11-11T01:56:36.120Z,1005.53
2017-11-11T01:57:16.709Z,1005.52
2017-11-11T01:57:57.284Z,1005.55
2017-11-11T01:58:37.847Z,1005.59
2017-11-11T01:59:18.504Z,1005.59
2017-11-11T01:59:59.059Z,1005.54
2017-11-11T02:00:39.547Z,1005.55
2017-11-11T02:01:20.100Z,1005.53
2017-11-11T02:02:00.661Z,1005.56
2017-11-11T02:02:41.241Z,1005.5
2017-11-11T02:03:21.865Z,1005.54
2017-11-11T02:04:02.364Z,1005.5
2017-11-11T02:04:42.918Z,1005.48
2017-11-11T02:05:23.512Z,1005.49
2017-11-11T02:06:04.078Z,1005.51
2017-11-11T02:06:44.677Z,1005.48
2017-11-11T02:07:25.153Z,1005.5
2017-11-11T02:08:05.711Z,1005.48
2017-11-11T02:08:46.265Z,1005.5
2017-11-11T02:09:26.805Z,1005.45
2017-11-11T02:10:07.382Z,1005.48
2017-11-11T02:10:47.980Z,1005.54
2017-11-11T02:11:28.521Z,1005.52
2017-11-11T02:12:09.064Z,1005.52
2017-11-11T02:12:49.672Z,1005.48
2017-11-11T02:13:30.277Z,1005.55
2017-11-11T02:14:10.810Z,1005.5
2017-11-11T02:14:51.380Z,1005.47
2017-11-11T02:15:31.914Z,1005.45
2017-11-11T02:16:12.453Z,1005.46
2017-11-11T02:16:53.024Z,1005.45
2017-11-11T02:17:33.621Z,1005.5
2017-11-11T02:18:14.186Z,1005.45
2017-11-11T02:18:54.796Z,1005.41
2017-11-11T02:19:35.330Z,1005.41
2017-11-11T02:20:15.905Z,1005.44
2017-11-11T02:20:56.471Z,1005.43
2017-11-11T02:21:37.003Z,1005.44
2017-11-11T02:22:17.597Z,1005.46
2017-11-11T02:22:58.120Z,1005.41
2017-11-11T02:23:38.653Z,1005.4
2017-11-11T02:24:19.215Z,1005.44
2017-11-11T02:24:59.793Z,1005.45
2017-11-11T02:25:40.326Z,1005.43
2017-11-11T02:26:20.893Z,1005.44
2017-11-11T02:27:01.455Z,1005.43
2017-11-11T02:27:42.003Z,1005.41
2017-11-11T02:28:22.542Z,1005.41
2017-11-11T02:29:03.179Z,1005.41
2017-11-11T02:29:43.736Z,1005.46
2017-11-11T02:30:24.302Z,1005.43
2017-11-11T02:31:04.833Z,1005.43
2017-11-11T02:31:45.488Z,1005.42
2017-11-11T02:32:26.052Z,1005.4
2017-11-11T02:33:07.114Z,1005.42
2017-11-11T02:33:47.112Z,1005.4
2017-11-11T02:34:27.669Z,1005.38
2017-11-11T02:35:08.249Z,1005.45
2017-11-11T02:35:48.805Z,1005.39
2017-11-11T02:36:29.366Z,1005.38
2017-11-11T02:37:09.893Z,1005.33
2017-11-11T02:37:50.455Z,1005.34
2017-11-11T02:38:31.011Z,1005.38
2017-11-11T02:39:11.553Z,1005.37
2017-11-11T02:39:52.110Z,1005.36
2017-11-11T02:40:32.690Z,1005.38
2017-11-11T02:41:13.202Z,1005.36
2017-11-11T02:41:53.761Z,1005.4
2017-11-11T02:42:34.325Z,1005.38
2017-11-11T02:43:14.926Z,1005.36
2017-11-11T02:43:55.526Z,1005.34
2017-11-11T02:44:36.078Z,1005.39
2017-11-11T02:45:16.589Z,1005.36
2017-11-11T02:45:57.170Z,1005.39
2017-11-11T02:46:37.713Z,1005.4
2017-11-11T02:47:18.266Z,1005.41
2017-11-11T02:47:58.831Z,1005.39
2017-11-11T02:48:39.408Z,1005.35
2017-11-11T02:49:19.941Z,1005.45
2017-11-11T02:50:00.525Z,1005.38
2017-11-11T02:50:41.249Z,1005.42
2017-11-11T02:51:21.812Z,1005.38
2017-11-11T02:52:02.350Z,1005.37
2017-11-11T02:52:42.892Z,1005.34
2017-11-11T02:53:23.435Z,1005.36
2017-11-11T02:54:04.000Z,1005.34
2017-11-11T02:54:44.544Z,1005.28
2017-11-11T02:55:25.092Z,1005.26
2017-11-11T02:56:05.607Z,1005.25
2017-11-11T02:56:46.181Z,1005.23
2017-11-11T02:57:26.883Z,1005.2
2017-11-11T02:58:07.434Z,1005.2
2017-11-11T02:58:47.975Z,1005.24
2017-11-11T02:59:28.524Z,1005.2
2017-11-11T03:00:09.059Z,1005.22
2017-11-11T03:00:49.625Z,1005.23
2017-11-11T03:01:30.198Z,1005.26
2017-11-11T03:02:10.761Z,1005.26
2017-11-11T03:02:51.297Z,1005.26
2017-11-11T03:03:31.849Z,1005.26
2017-11-11T03:04:12.396Z,1005.27
2017-11-11T03:04:52.901Z,1005.24
2017-11-11T03:05:33.477Z,1005.3
2017-11-11T03:06:14.025Z,1005.28
2017-11-11T03:06:54.570Z,1005.18
2017-11-11T03:07:35.126Z,1005.16
2017-11-11T03:08:15.667Z,1005.14
2017-11-11T03:08:56.274Z,1005.11
2017-11-11T03:09:36.851Z,1005.12
2017-11-11T03:10:17.381Z,1005.12
2017-11-11T03:10:57.955Z,1005.16
2017-11-11T03:11:38.523Z,1005.15
2017-11-11T03:12:19.017Z,1005.18
2017-11-11T03:12:59.580Z,1005.13
2017-11-11T03:13:40.120Z,1005.11
2017-11-11T03:14:20.729Z,1005.12
2017-11-11T03:15:01.277Z,1005.1
2017-11-11T03:15:41.839Z,1005.11
2017-11-11T03:16:22.448Z,1005.19
2017-11-11T03:17:02.988Z,1005.16
2017-11-11T03:17:43.534Z,1005.11
2017-11-11T03:18:24.058Z,1005.14
2017-11-11T03:19:04.552Z,1005.13
2017-11-11T03:19:45.100Z,1005.13
2017-11-11T03:20:25.693Z,1005.11
2017-11-11T03:21:06.234Z,1005.07
2017-11-11T03:21:46.788Z,1005.07
2017-11-11T03:22:27.299Z,1005.02
2017-11-11T03:23:07.850Z,1005.01
2017-11-11T03:23:48.497Z,1004.99
2017-11-11T03:24:28.988Z,1004.91
2017-11-11T03:25:09.538Z,1004.96
2017-11-11T03:25:50.089Z,1004.96
2017-11-11T03:26:30.637Z,1004.94
2017-11-11T03:27:11.285Z,1004.91
2017-11-11T03:27:51.823Z,1004.97
2017-11-11T03:28:32.402Z,1004.89
2017-11-11T03:29:12.944Z,1004.86
2017-11-11T03:29:53.463Z,1004.88
2017-11-11T03:30:34.034Z,1004.86
2017-11-11T03:31:14.598Z,1004.87
2017-11-11T03:31:55.139Z,1004.94
2017-11-11T03:32:35.685Z,1004.95
2017-11-11T03:33:16.332Z,1004.95
2017-11-11T03:33:56.889Z,1004.91
2017-11-11T03:34:37.492Z,1004.91
2017-11-11T03:35:18.004Z,1004.93
2017-11-11T03:35:58.549Z,1004.93
2017-11-11T03:36:39.072Z,1004.92
2017-11-11T03:37:19.626Z,1004.93
2017-11-11T03:38:00.148Z,1004.91
2017-11-11T03:38:40.742Z,1004.87
2017-11-11T03:39:21.220Z,1004.89
2017-11-11T03:40:01.834Z,1004.9
2017-11-11T03:40:42.326Z,1004.86
2017-11-11T03:41:22.874Z,1004.86
2017-11-11T03:42:03.458Z,1004.85
2017-11-11T03:42:44.001Z,1004.91
2017-11-11T03:43:24.589Z,1004.91
2017-11-11T03:44:05.118Z,1005.02
2017-11-11T03:44:45.649Z,1005
2017-11-11T03:45:26.217Z,1005.05
2017-11-11T03:46:06.734Z,1005.02
2017-11-11T03:46:47.349Z,1005.05
2017-11-11T03:47:27.866Z,1005.04
2017-11-11T03:48:08.441Z,1004.99
2017-11-11T03:48:49.018Z,1004.96
2017-11-11T03:49:29.497Z,1004.93
2017-11-11T03:50:10.049Z,1004.94
2017-11-11T03:50:50.626Z,1004.88
2017-11-11T03:51:31.169Z,1004.9
2017-11-11T03:52:11.752Z,1004.89
2017-11-11T03:52:52.315Z,1004.87
2017-11-11T03:53:32.864Z,1004.84
2017-11-11T03:54:13.425Z,1004.85
2017-11-11T03:54:53.979Z,1004.85
2017-11-11T03:55:34.519Z,1004.88
2017-11-11T03:56:15.056Z,1004.89
2017-11-11T03:56:55.587Z,1004.86
2017-11-11T03:57:36.255Z,1004.87
2017-11-11T03:58:16.856Z,1004.83
2017-11-11T03:58:57.394Z,1004.83
2017-11-11T03:59:37.931Z,1004.83
2017-11-11T04:00:18.507Z,1004.86
2017-11-11T04:00:59.040Z,1004.81
2017-11-11T04:01:39.549Z,1004.86
2017-11-11T04:02:20.141Z,1004.83
2017-11-11T04:03:00.704Z,1004.86
2017-11-11T04:03:41.258Z,1004.81
2017-11-11T04:04:21.775Z,1004.84
2017-11-11T04:05:02.362Z,1004.8
2017-11-11T04:05:42.896Z,1004.78
2017-11-11T04:06:23.477Z,1004.71
2017-11-11T04:07:04.004Z,1004.69
2017-11-11T04:07:44.562Z,1004.69
2017-11-11T04:08:25.110Z,1004.7
2017-11-11T04:09:05.672Z,1004.76
2017-11-11T04:09:46.188Z,1004.78
2017-11-11T04:10:26.769Z,1004.81
2017-11-11T04:11:07.296Z,1004.76
2017-11-11T04:11:47.833Z,1004.77
2017-11-11T04:12:28.421Z,1004.77
2017-11-11T04:13:08.947Z,1004.74
2017-11-11T04:13:49.511Z,1004.72
2017-11-11T04:14:30.069Z,1004.72
2017-11-11T04:15:10.633Z,1004.71
2017-11-11T04:15:51.166Z,1004.68
2017-11-11T04:16:31.709Z,1004.67
2017-11-11T04:17:12.218Z,1004.73
2017-11-11T04:17:52.770Z,1004.75
2017-11-11T04:18:33.383Z,1004.72
2017-11-11T04:19:13.911Z,1004.71
2017-11-11T04:19:54.466Z,1004.64
2017-11-11T04:20:35.013Z,1004.57
2017-11-11T04:21:15.572Z,1004.56
2017-11-11T04:21:56.158Z,1004.54
2017-11-11T04:22:36.687Z,1004.49
2017-11-11T04:23:17.216Z,1004.63
2017-11-11T04:23:57.928Z,1004.62
2017-11-11T04:24:38.491Z,1004.6
2017-11-11T04:25:18.989Z,1004.6
2017-11-11T04:25:59.633Z,1004.58
2017-11-11T04:26:40.181Z,1004.6
2017-11-11T04:27:20.732Z,1004.58
2017-11-11T04:28:02.055Z,1004.59
2017-11-11T04:28:42.618Z,1004.57
2017-11-11T04:29:23.121Z,1004.65
2017-11-11T04:30:03.668Z,1004.55
2017-11-11T04:30:44.233Z,1004.59
2017-11-11T04:31:24.761Z,1004.61
2017-11-11T04:32:05.297Z,1004.57
2017-11-11T04:32:45.847Z,1004.56
2017-11-11T04:33:26.444Z,1004.61
2017-11-11T04:34:06.949Z,1004.67
2017-11-11T04:34:47.511Z,1004.65
2017-11-11T04:35:28.057Z,1004.67
2017-11-11T04:36:08.584Z,1004.64
2017-11-11T04:36:49.170Z,1004.59
2017-11-11T04:37:29.724Z,1004.52
2017-11-11T04:38:10.284Z,1004.5
2017-11-11T04:38:50.801Z,1004.49
2017-11-11T04:39:31.378Z,1004.55
2017-11-11T04:40:11.915Z,1004.51
2017-11-11T04:40:52.476Z,1004.48
2017-11-11T04:41:33.017Z,1004.47
2017-11-11T04:42:13.569Z,1004.52
2017-11-11T04:42:54.121Z,1004.49
2017-11-11T04:43:34.725Z,1004.47
2017-11-11T04:44:15.308Z,1004.43
2017-11-11T04:44:55.889Z,1004.48
2017-11-11T04:45:36.443Z,1004.48
2017-11-11T04:46:16.987Z,1004.43
2017-11-11T04:46:57.568Z,1004.45
2017-11-11T04:47:38.093Z,1004.39
2017-11-11T04:48:18.632Z,1004.43
2017-11-11T04:48:59.198Z,1004.4
2017-11-11T04:49:39.742Z,1004.41
2017-11-11T04:50:20.326Z,1004.42
2017-11-11T04:51:00.889Z,1004.42
2017-11-11T04:51:41.452Z,1004.44
2017-11-11T04:52:22.011Z,1004.46
2017-11-11T04:53:02.573Z,1004.44
2017-11-11T04:53:43.130Z,1004.43
2017-11-11T04:54:23.679Z,1004.39
2017-11-11T04:55:04.236Z,1004.37
2017-11-11T04:55:44.785Z,1004.35
2017-11-11T04:56:25.352Z,1004.37
2017-11-11T04:57:05.889Z,1004.34
2017-11-11T04:57:46.455Z,1004.34
2017-11-11T04:58:27.000Z,1004.3
2017-11-11T04:59:07.554Z,1004.3
2017-11-11T04:59:48.164Z,1004.27
2017-11-11T05:00:28.678Z,1004.29
2017-11-11T05:01:09.171Z,1004.28
2017-11-11T05:01:49.741Z,1004.28
2017-11-11T05:02:30.305Z,1004.26
2017-11-11T05:03:10.870Z,1004.29
2017-11-11T05:03:51.482Z,1004.29
2017-11-11T05:04:32.025Z,1004.25
2017-11-11T05:05:12.554Z,1004.24
2017-11-11T05:05:53.096Z,1004.31
2017-11-11T05:06:33.737Z,1004.22
2017-11-11T05:07:14.239Z,1004.23
2017-11-11T05:07:54.778Z,1004.22
2017-11-11T05:08:35.354Z,1004.19
2017-11-11T05:09:16.074Z,1004.15
2017-11-11T05:09:56.519Z,1004.19
2017-11-11T05:10:37.143Z,1004.19
2017-11-11T05:11:17.656Z,1004.2
2017-11-11T05:11:58.188Z,1004.18
2017-11-11T05:12:38.674Z,1004.18
2017-11-11T05:13:19.229Z,1004.16
2017-11-11T05:13:59.759Z,1004.18
2017-11-11T05:14:40.319Z,1004.17
2017-11-11T05:15:20.860Z,1004.13
2017-11-11T05:16:01.455Z,1004.14
2017-11-11T05:16:42.001Z,1004.13
2017-11-11T05:17:22.571Z,1004.14
2017-11-11T05:18:03.088Z,1004.13
2017-11-11T05:18:43.645Z,1004.15
2017-11-11T05:19:24.159Z,1004.13
2017-11-11T05:20:04.737Z,1004.12
2017-11-11T05:20:45.316Z,1004.09
2017-11-11T05:21:25.832Z,1004.05
2017-11-11T05:22:06.395Z,1004.07
2017-11-11T05:22:46.963Z,1004.04
2017-11-11T05:23:27.453Z,1004.07
2017-11-11T05:24:08.033Z,1004.07
2017-11-11T05:24:48.544Z,1004.05
2017-11-11T05:25:29.112Z,1004.07
2017-11-11T05:26:09.629Z,1004.07
2017-11-11T05:26:50.191Z,1004.04
2017-11-11T05:27:30.743Z,1004.05
2017-11-11T05:28:11.264Z,1004.02
2017-11-11T05:28:51.809Z,1004.02
2017-11-11T05:29:32.373Z,1004.02
2017-11-11T05:30:12.912Z,1003.97
2017-11-11T05:30:53.451Z,1003.95
2017-11-11T05:31:33.987Z,1003.94
2017-11-11T05:32:14.533Z,1003.97
2017-11-11T05:32:55.109Z,1003.93
2017-11-11T05:33:35.685Z,1004
2017-11-11T05:34:16.208Z,1004
2017-11-11T05:34:56.762Z,1004.01
2017-11-11T05:35:37.310Z,1003.97
2017-11-11T05:36:17.852Z,1003.95
2017-11-11T05:36:58.417Z,1003.97
2017-11-11T05:37:38.996Z,1003.97
2017-11-11T05:38:19.519Z,1003.99
2017-11-11T05:39:00.130Z,1003.94
2017-11-11T05:39:40.686Z,1003.95
2017-11-11T05:40:21.244Z,1003.89
2017-11-11T05:41:01.786Z,1003.87
2017-11-11T05:41:42.384Z,1003.89
2017-11-11T05:42:22.948Z,1003.9
2017-11-11T05:43:03.506Z,1003.92
2017-11-11T05:43:44.044Z,1003.93
2017-11-11T05:44:24.609Z,1003.96
2017-11-11T05:45:05.147Z,1003.95
2017-11-11T05:45:45.715Z,1003.96
2017-11-11T05:46:26.285Z,1004
2017-11-11T05:47:06.797Z,1003.98
2017-11-11T05:47:47.400Z,1003.99
2017-11-11T05:48:28.009Z,1003.99
2017-11-11T05:49:08.532Z,1004.03
2017-11-11T05:49:49.106Z,1003.97
2017-11-11T05:50:29.660Z,1003.92
2017-11-11T05:51:10.243Z,1003.93
2017-11-11T05:51:50.759Z,1003.91
2017-11-11T05:52:31.289Z,1003.9
2017-11-11T05:53:11.849Z,1003.87
2017-11-11T05:53:52.415Z,1003.85
2017-11-11T05:54:33.075Z,1003.86
2017-11-11T05:55:13.610Z,1003.82
2017-11-11T05:55:54.215Z,1003.86
2017-11-11T05:56:34.729Z,1003.8
2017-11-11T05:57:15.365Z,1003.8
2017-11-11T05:57:55.871Z,1003.8
2017-11-11T05:58:36.434Z,1003.83
2017-11-11T05:59:16.947Z,1003.84
2017-11-11T05:59:57.511Z,1003.79
2017-11-11T06:00:38.046Z,1003.83
2017-11-11T06:01:18.597Z,1003.84
2017-11-11T06:01:59.182Z,1003.85
2017-11-11T06:02:39.709Z,1003.85
2017-11-11T06:03:20.212Z,1003.87
2017-11-11T06:04:00.779Z,1003.84
2017-11-11T06:04:41.315Z,1003.85
2017-11-11T06:05:21.980Z,1003.86
2017-11-11T06:06:02.539Z,1003.83
2017-11-11T06:06:43.139Z,1003.77
2017-11-11T06:07:23.675Z,1003.81
2017-11-11T06:08:04.228Z,1003.8
2017-11-11T06:08:44.730Z,1003.76
2017-11-11T06:09:25.268Z,1003.78
2017-11-11T06:10:05.838Z,1003.75
2017-11-11T06:10:46.372Z,1003.79
2017-11-11T06:11:26.882Z,1003.83
2017-11-11T06:12:07.434Z,1003.86
2017-11-11T06:12:48.001Z,1003.88
2017-11-11T06:13:28.550Z,1003.85
2017-11-11T06:14:09.178Z,1003.81
2017-11-11T06:14:49.707Z,1003.81
2017-11-11T06:15:30.208Z,1003.81
2017-11-11T06:16:10.766Z,1003.81
2017-11-11T06:16:51.342Z,1003.8
2017-11-11T06:17:31.883Z,1003.78
2017-11-11T06:18:12.408Z,1003.78
2017-11-11T06:18:52.988Z,1003.74
2017-11-11T06:19:33.489Z,1003.83
2017-11-11T06:20:14.026Z,1003.77
2017-11-11T06:20:54.574Z,1003.74
2017-11-11T06:21:35.106Z,1003.76
2017-11-11T06:22:15.711Z,1003.74
2017-11-11T06:22:56.210Z,1003.77
2017-11-11T06:23:36.811Z,1003.78
2017-11-11T06:24:17.292Z,1003.71
2017-11-11T06:24:57.837Z,1003.76
2017-11-11T06:25:38.331Z,1003.77
2017-11-11T06:26:18.879Z,1003.74
2017-11-11T06:26:59.581Z,1003.76
2017-11-11T06:27:40.125Z,1003.71
2017-11-11T06:28:20.673Z,1003.72
2017-11-11T06:29:01.213Z,1003.72
2017-11-11T06:29:41.774Z,1003.76
2017-11-11T06:30:22.864Z,1003.73
2017-11-11T06:31:03.376Z,1003.76
2017-11-11T06:31:43.962Z,1003.81
2017-11-11T06:32:24.522Z,1003.79
2017-11-11T06:33:05.050Z,1003.72
2017-11-11T06:33:45.604Z,1003.8
2017-11-11T06:34:26.158Z,1003.73
2017-11-11T06:36:45.427Z,1003.74
2017-11-11T06:37:25.944Z,1003.71
2017-11-11T06:38:06.530Z,1003.69
2017-11-11T06:38:47.040Z,1003.68
2017-11-11T06:40:46.657Z,1003.66
2017-11-11T06:41:27.169Z,1003.66
2017-11-11T06:42:07.946Z,1003.69
2017-11-11T06:42:48.512Z,1003.69
2017-11-11T06:43:29.101Z,1003.67
2017-11-11T06:44:09.869Z,1003.7
2017-11-11T06:44:50.404Z,1003.71
2017-11-11T06:45:30.945Z,1003.7
2017-11-11T06:46:11.494Z,1003.74
2017-11-11T06:46:52.022Z,1003.71
2017-11-11T06:47:32.565Z,1003.74
2017-11-11T06:48:13.124Z,1003.7
2017-11-11T06:48:53.678Z,1003.69
2017-11-11T06:49:34.228Z,1003.66
2017-11-11T06:50:14.770Z,1003.68
2017-11-11T06:50:55.342Z,1003.63
2017-11-11T06:51:35.845Z,1003.58
2017-11-11T06:52:16.391Z,1003.57
2017-11-11T06:52:57.422Z,1003.59
2017-11-11T06:53:40.974Z,1003.61
2017-11-11T06:56:20.411Z,1003.58
2017-11-11T07:02:28.884Z,1003.44
2017-11-11T07:03:21.409Z,1003.45
2017-11-11T07:04:15.987Z,1003.45
2017-11-11T07:05:12.668Z,1003.48
2017-11-11T07:06:01.354Z,1003.45
2017-11-11T07:06:50.293Z,1003.47
2017-11-11T07:07:39.396Z,1003.46
2017-11-11T07:08:28.343Z,1003.43
2017-11-11T07:09:16.928Z,1003.48
2017-11-11T07:10:05.825Z,1003.45
2017-11-11T07:10:55.017Z,1003.46
2017-11-11T07:11:43.529Z,1003.49
2017-11-11T07:12:32.496Z,1003.49
2017-11-11T07:13:21.631Z,1003.44
2017-11-11T07:14:10.477Z,1003.43
2017-11-11T07:14:59.263Z,1003.41
2017-11-11T07:19:22.277Z,1003.41
2017-11-11T07:20:13.023Z,1003.38
2017-11-11T07:21:02.348Z,1003.36
2017-11-11T07:21:50.605Z,1003.32
2017-11-11T07:22:39.157Z,1003.26
2017-11-11T07:35:30.547Z,1003.02
2017-11-11T07:36:19.482Z,1003.01
2017-11-11T07:37:08.392Z,1003.01
2017-11-11T07:37:57.224Z,1003.06
2017-11-11T07:38:45.254Z,1003.02
2017-11-11T07:39:34.382Z,1003.02
2017-11-11T07:40:22.888Z,1002.98
2017-11-11T07:41:11.429Z,1002.93
2017-11-11T07:42:00.487Z,1002.88
2017-11-11T07:42:49.460Z,1002.85
2017-11-11T07:43:38.204Z,1002.85
2017-11-11T07:44:26.701Z,1002.87
2017-11-11T07:45:15.662Z,1002.83
2017-11-11T07:46:04.394Z,1002.81
2017-11-11T07:46:53.397Z,1002.76
2017-11-11T07:47:41.867Z,1002.74
2017-11-11T07:48:30.902Z,1002.73
2017-11-11T07:49:19.844Z,1002.67
2017-11-11T07:50:08.501Z,1002.66
2017-11-11T07:50:57.364Z,1002.65
2017-11-11T07:51:46.886Z,1002.68
2017-11-11T07:52:34.812Z,1002.65
2017-11-11T07:53:23.576Z,1002.63
2017-11-11T07:54:12.305Z,1002.63
2017-11-11T07:55:00.841Z,1002.59
2017-11-11T07:55:50.873Z,1002.57
2017-11-11T08:00:01.490Z,1002.51
2017-11-11T08:00:50.291Z,1002.51
2017-11-11T08:01:39.163Z,1002.51
2017-11-11T08:02:33.744Z,1002.47
2017-11-11T08:05:58.270Z,1002.48
2017-11-11T08:06:54.054Z,1002.44
2017-11-11T08:07:48.810Z,1002.46
2017-11-11T08:08:37.883Z,1002.46
2017-11-11T08:09:27.232Z,1002.47
2017-11-11T08:10:16.456Z,1002.42
2017-11-11T08:12:20.514Z,1002.45
2017-11-11T08:13:09.882Z,1002.43
2017-11-11T08:13:50.237Z,1002.42
2017-11-11T08:14:30.808Z,1002.42
2017-11-11T08:15:12.707Z,1002.43
2017-11-11T08:15:53.716Z,1002.38
2017-11-11T08:16:34.342Z,1002.39
2017-11-11T08:17:14.893Z,1002.4
2017-11-11T08:17:55.416Z,1002.39
2017-11-11T08:18:36.114Z,1002.34
2017-11-11T08:19:19.577Z,1002.45
2017-11-11T08:20:00.475Z,1002.35
2017-11-11T08:20:41.112Z,1002.38
2017-11-11T08:21:24.036Z,1002.38
2017-11-11T08:22:05.148Z,1002.37
2017-11-11T08:22:46.400Z,1002.36
2017-11-11T08:23:28.133Z,1002.36
2017-11-11T08:24:10.629Z,1002.27
2017-11-11T08:24:53.562Z,1002.33
2017-11-11T08:25:37.864Z,1002.31
2017-11-11T08:26:19.830Z,1002.28
2017-11-11T08:27:02.154Z,1002.27
2017-11-11T08:27:42.686Z,1002.22
2017-11-11T08:28:23.398Z,1002.21
2017-11-11T08:29:05.283Z,1002.16
2017-11-11T08:29:47.272Z,1002.15
2017-11-11T08:30:27.915Z,1002.09
2017-11-11T08:31:08.474Z,1002.02
2017-11-11T08:31:48.971Z,1002.06
2017-11-11T08:32:29.694Z,1001.99
2017-11-11T08:33:10.321Z,1002.02
2017-11-11T08:33:50.856Z,1002.08
2017-11-11T08:34:31.345Z,1002.1
2017-11-11T08:35:11.957Z,1002.07
2017-11-11T08:35:52.484Z,1002.03
2017-11-11T08:36:32.965Z,1002.1
2017-11-11T08:37:14.147Z,1002.01
2017-11-11T08:37:54.557Z,1002.07
2017-11-11T08:38:35.516Z,1002
2017-11-11T08:39:16.117Z,1001.95
2017-11-11T08:39:56.872Z,1002.03
2017-11-11T08:40:37.792Z,1001.99
2017-11-11T08:41:18.452Z,1001.99
2017-11-11T08:41:59.400Z,1002.02
2017-11-11T08:42:39.864Z,1001.97
2017-11-11T08:43:20.648Z,1001.99
2017-11-11T08:44:02.010Z,1001.97
2017-11-11T08:44:47.089Z,1002
2017-11-11T08:45:27.607Z,1002.03
2017-11-11T08:46:08.270Z,1002.01
2017-11-11T08:46:48.734Z,1001.98
2017-11-11T08:47:29.602Z,1001.93
2017-11-11T08:48:10.099Z,1001.95
2017-11-11T08:48:50.653Z,1001.93
2017-11-11T08:49:31.253Z,1001.95
2017-11-11T08:50:14.037Z,1001.89
2017-11-11T08:50:54.780Z,1001.91
2017-11-11T08:51:35.463Z,1001.85
2017-11-11T08:52:19.952Z,1001.81
2017-11-11T08:53:00.607Z,1001.82
2017-11-11T08:53:42.976Z,1001.78
2017-11-11T08:54:23.967Z,1001.78
2017-11-11T08:55:04.679Z,1001.77